createdAt,value
2019-02-20T00:01:52.095Z,37.27
2019-02-20T00:03:53.552Z,36.43
2019-02-20T00:05:54.391Z,36.73
2019-02-20T00:07:55.243Z,34.47
2019-02-20T00:09:56.094Z,33.70
2019-02-20T00:11:56.941Z,32.73
2019-02-20T00:13:57.786Z,38.37
2019-02-20T00:15:58.660Z,37.13
2019-02-20T00:17:59.601Z,35.37
2019-02-20T00:20:00.445Z,34.37
2019-02-20T00:22:01.388Z,33.47
2019-02-20T00:24:02.335Z,30.53
2019-02-20T00:26:03.232Z,33.77
2019-02-20T00:28:04.064Z,30.07
2019-02-20T00:30:04.917Z,34.93
2019-02-20T00:32:05.736Z,32.20
2019-02-20T00:34:08.218Z,30.83
2019-02-20T00:36:09.228Z,28.97
2019-02-20T00:38:10.083Z,30.90
2019-02-20T00:40:10.929Z,30.33
2019-02-20T00:42:11.760Z,31.07
2019-02-20T00:44:27.848Z,34.97
2019-02-20T00:46:34.023Z,34.43
2019-02-20T00:48:45.509Z,36.83
2019-02-20T00:50:46.767Z,33.90
2019-02-20T00:52:55.775Z,33.90
2019-02-20T00:54:56.961Z,33.33
2019-02-20T00:56:57.807Z,33.57
2019-02-20T00:58:58.938Z,34.50
2019-02-20T01:00:59.759Z,35.83
2019-02-20T01:03:00.617Z,34.80
2019-02-20T01:05:01.441Z,30.13
2019-02-20T01:07:02.402Z,33.27
2019-02-20T01:09:03.969Z,34.77
2019-02-20T01:11:04.800Z,34.60
2019-02-20T01:13:05.648Z,41.97
2019-02-20T01:15:06.491Z,41.73
2019-02-20T01:17:07.377Z,40.00
2019-02-20T01:19:08.192Z,42.17
2019-02-20T01:21:09.020Z,38.17
2019-02-20T01:23:09.863Z,33.80
2019-02-20T01:25:10.711Z,33.77
2019-02-20T01:27:11.553Z,33.37
2019-02-20T01:29:12.372Z,32.90
2019-02-20T01:31:13.205Z,36.80
2019-02-20T01:33:14.048Z,33.30
2019-02-20T01:35:15.224Z,33.77
2019-02-20T01:37:16.102Z,34.57
2019-02-20T01:39:17.236Z,35.43
2019-02-20T01:41:18.168Z,31.57
2019-02-20T01:43:19.032Z,33.70
2019-02-20T01:45:19.856Z,33.20
2019-02-20T01:47:20.971Z,34.37
2019-02-20T01:49:21.832Z,33.30
2019-02-20T01:51:22.660Z,31.87
2019-02-20T01:53:23.520Z,31.23
2019-02-20T01:55:24.392Z,32.63
2019-02-20T01:57:25.223Z,29.57
2019-02-20T01:59:26.044Z,35.27
2019-02-20T02:01:26.905Z,34.27
2019-02-20T02:03:27.734Z,37.17
2019-02-20T02:05:28.560Z,34.27
2019-02-20T02:07:29.408Z,33.57
2019-02-20T02:09:30.244Z,35.27
2019-02-20T02:11:31.098Z,34.87
2019-02-20T02:13:31.935Z,31.27
2019-02-20T02:15:32.758Z,33.23
2019-02-20T02:17:33.604Z,32.07
2019-02-20T02:19:34.440Z,34.40
2019-02-20T02:21:35.309Z,36.50
2019-02-20T02:23:36.154Z,32.27
2019-02-20T02:25:36.970Z,34.57
2019-02-20T02:27:37.829Z,36.10
2019-02-20T02:29:38.656Z,34.83
2019-02-20T02:31:39.933Z,31.40
2019-02-20T02:33:40.771Z,34.07
2019-02-20T02:35:41.609Z,32.60
2019-02-20T02:37:42.432Z,34.53
2019-02-20T02:39:43.543Z,33.23
2019-02-20T02:41:44.925Z,34.80
2019-02-20T02:43:46.075Z,30.60
2019-02-20T02:45:46.909Z,32.80
2019-02-20T02:47:47.740Z,33.53
2019-02-20T02:49:48.599Z,31.17
2019-02-20T02:51:49.428Z,32.63
2019-02-20T02:53:50.264Z,31.20
2019-02-20T02:55:51.104Z,35.03
2019-02-20T02:57:51.945Z,34.07
2019-02-20T02:59:52.767Z,32.97
2019-02-20T03:01:53.617Z,35.67
2019-02-20T03:03:54.787Z,34.00
2019-02-20T03:05:55.979Z,33.97
2019-02-20T03:07:56.811Z,34.40
2019-02-20T03:09:57.662Z,32.03
2019-02-20T03:11:58.845Z,30.40
2019-02-20T03:14:00.076Z,33.73
2019-02-20T03:16:00.929Z,33.53
2019-02-20T03:18:01.754Z,33.97
2019-02-20T03:20:02.600Z,30.97
2019-02-20T03:22:03.440Z,33.80
2019-02-20T03:24:04.385Z,33.50
2019-02-20T03:26:05.234Z,36.17
2019-02-20T03:28:06.061Z,35.33
2019-02-20T03:30:06.919Z,34.77
2019-02-20T03:32:08.098Z,31.30
2019-02-20T03:34:09.225Z,31.97
2019-02-20T03:36:10.151Z,31.07
2019-02-20T03:38:11.000Z,30.83
2019-02-20T03:40:12.152Z,32.17
2019-02-20T03:42:12.974Z,32.17
2019-02-20T03:44:13.817Z,30.00
2019-02-20T03:46:14.668Z,36.40
2019-02-20T03:48:15.506Z,32.37
2019-02-20T03:50:16.334Z,32.63
2019-02-20T03:52:17.189Z,32.13
2019-02-20T03:54:18.020Z,33.93
2019-02-20T03:56:18.856Z,34.57
2019-02-20T03:58:19.704Z,33.13
2019-02-20T04:00:20.537Z,36.20
2019-02-20T04:02:21.389Z,33.13
2019-02-20T04:04:22.225Z,34.83
2019-02-20T04:06:23.062Z,33.40
2019-02-20T04:08:23.909Z,33.73
2019-02-20T04:10:24.740Z,35.30
2019-02-20T04:12:25.580Z,34.33
2019-02-20T04:14:26.424Z,33.17
2019-02-20T04:16:27.272Z,39.80
2019-02-20T04:18:28.126Z,35.30
2019-02-20T04:20:28.957Z,31.93
2019-02-20T04:22:29.832Z,31.80
2019-02-20T04:24:30.673Z,33.27
2019-02-20T04:26:31.610Z,31.23
2019-02-20T04:28:32.457Z,32.43
2019-02-20T04:30:33.285Z,31.23
2019-02-20T04:32:34.117Z,30.60
2019-02-20T04:34:34.964Z,34.13
2019-02-20T04:36:35.800Z,32.57
2019-02-20T04:38:36.633Z,36.07
2019-02-20T04:40:37.478Z,31.30
2019-02-20T04:42:38.401Z,37.33
2019-02-20T04:44:39.370Z,36.47
2019-02-20T04:46:40.201Z,35.47
2019-02-20T04:48:41.048Z,32.27
2019-02-20T04:50:41.900Z,34.40
2019-02-20T04:52:42.756Z,32.07
2019-02-20T04:54:43.581Z,33.00
2019-02-20T04:56:44.437Z,30.67
2019-02-20T04:58:45.264Z,34.60
2019-02-20T05:00:46.142Z,33.27
2019-02-20T05:02:47.043Z,33.03
2019-02-20T05:04:47.889Z,33.07
2019-02-20T05:06:49.093Z,33.57
2019-02-20T05:08:49.951Z,35.73
2019-02-20T05:10:50.786Z,34.50
2019-02-20T05:12:51.632Z,32.43
2019-02-20T05:14:52.750Z,30.93
2019-02-20T05:16:53.580Z,33.17
2019-02-20T05:18:54.403Z,34.47
2019-02-20T05:20:55.545Z,34.27
2019-02-20T05:22:56.373Z,31.63
2019-02-20T05:24:57.522Z,35.97
2019-02-20T05:26:58.357Z,33.00
2019-02-20T05:28:59.196Z,34.43
2019-02-20T05:31:00.054Z,35.70
2019-02-20T05:33:00.928Z,32.03
2019-02-20T05:35:01.869Z,34.03
2019-02-20T05:37:02.729Z,35.43
2019-02-20T05:39:04.250Z,33.57
2019-02-20T05:41:05.089Z,34.73
2019-02-20T05:43:05.924Z,32.57
2019-02-20T05:45:06.777Z,34.67
2019-02-20T05:47:07.602Z,32.97
2019-02-20T05:49:08.458Z,36.30
2019-02-20T05:51:09.289Z,34.63
2019-02-20T05:53:10.122Z,34.17
2019-02-20T05:55:10.971Z,31.57
2019-02-20T05:57:11.806Z,35.43
2019-02-20T05:59:12.653Z,34.73
2019-02-20T06:01:13.489Z,33.10
2019-02-20T06:03:14.341Z,32.43
2019-02-20T06:05:15.173Z,32.53
2019-02-20T06:07:16.326Z,32.13
2019-02-20T06:09:17.181Z,33.63
2019-02-20T06:11:18.027Z,31.93
2019-02-20T06:13:18.868Z,34.40
2019-02-20T06:15:19.704Z,35.17
2019-02-20T06:17:20.537Z,32.03
2019-02-20T06:19:21.369Z,33.70
2019-02-20T06:21:22.465Z,36.97
2019-02-20T06:23:23.336Z,35.93
2019-02-20T06:25:24.178Z,36.17
2019-02-20T06:27:25.016Z,37.47
2019-02-20T06:29:25.869Z,36.30
2019-02-20T06:31:26.701Z,40.50
2019-02-20T06:33:27.539Z,43.87
2019-02-20T06:35:28.736Z,40.53
2019-02-20T06:37:29.585Z,42.73
2019-02-20T06:39:30.421Z,46.03
2019-02-20T06:41:38.671Z,44.27
2019-02-20T06:43:34.021Z,45.57
2019-02-20T06:45:34.842Z,47.10
2019-02-20T06:47:35.978Z,44.57
2019-02-20T06:49:36.814Z,41.87
2019-02-20T06:51:37.657Z,42.07
2019-02-20T06:53:38.524Z,41.00
2019-02-20T06:55:39.389Z,42.03
2019-02-20T06:57:40.229Z,51.53
2019-02-20T06:59:41.094Z,49.30
2019-02-20T07:01:41.925Z,47.30
2019-02-20T07:03:42.772Z,45.57
2019-02-20T07:05:43.627Z,48.63
2019-02-20T07:07:44.480Z,48.67
2019-02-20T07:09:45.313Z,44.40
2019-02-20T07:11:46.140Z,45.27
2019-02-20T07:13:46.988Z,44.07
2019-02-20T07:15:47.823Z,47.17
2019-02-20T07:17:48.992Z,45.27
2019-02-20T07:19:50.064Z,47.30
2019-02-20T07:21:50.920Z,46.10
2019-02-20T07:23:51.763Z,42.80
2019-02-20T07:25:52.908Z,47.90
2019-02-20T07:27:53.768Z,51.43
2019-02-20T07:29:54.588Z,45.40
2019-02-20T07:31:55.452Z,47.97
2019-02-20T07:33:56.568Z,46.77
2019-02-20T07:35:57.407Z,47.13
2019-02-20T07:37:58.274Z,48.07
2019-02-20T07:39:59.119Z,97.60
2019-02-20T07:41:59.944Z,69.27
2019-02-20T07:44:00.809Z,53.57
2019-02-20T07:46:01.678Z,43.50
2019-02-20T07:48:02.519Z,40.47
2019-02-20T07:50:03.371Z,39.63
2019-02-20T07:52:04.200Z,36.27
2019-02-20T07:54:05.048Z,45.30
2019-02-20T07:56:05.889Z,42.67
2019-02-20T07:58:06.744Z,45.23
2019-02-20T08:00:07.592Z,43.33
2019-02-20T08:02:08.424Z,44.20
2019-02-20T08:04:09.278Z,45.37
2019-02-20T08:06:10.109Z,40.03
2019-02-20T08:08:10.945Z,39.73
2019-02-20T08:10:11.789Z,39.17
2019-02-20T08:12:12.629Z,37.90
2019-02-20T08:14:13.452Z,37.33
2019-02-20T08:16:14.313Z,41.47
2019-02-20T08:18:15.180Z,37.50
2019-02-20T08:20:16.335Z,38.30
2019-02-20T08:22:17.528Z,39.80
2019-02-20T08:24:18.417Z,37.53
2019-02-20T08:26:19.253Z,34.97
2019-02-20T08:28:20.105Z,36.47
2019-02-20T08:30:20.950Z,34.30
2019-02-20T08:32:21.776Z,35.13
2019-02-20T08:34:22.894Z,38.40
2019-02-20T08:36:23.724Z,32.00
2019-02-20T08:38:24.565Z,30.97
2019-02-20T08:40:25.420Z,32.30
2019-02-20T08:42:26.292Z,35.57
2019-02-20T08:44:27.124Z,36.03
2019-02-20T08:46:27.971Z,32.80
2019-02-20T08:48:28.807Z,31.33
2019-02-20T08:50:29.640Z,32.07
2019-02-20T08:52:30.480Z,33.50
2019-02-20T08:54:31.320Z,33.00
2019-02-20T08:56:32.178Z,34.43
2019-02-20T08:58:32.997Z,33.17
2019-02-20T09:00:33.821Z,30.67
2019-02-20T09:02:34.690Z,34.30
2019-02-20T09:04:35.785Z,32.93
2019-02-20T09:06:36.616Z,31.23
2019-02-20T09:08:37.778Z,32.00
2019-02-20T09:10:38.898Z,33.27
2019-02-20T09:12:40.052Z,30.97
2019-02-20T09:14:40.896Z,29.77
2019-02-20T09:16:41.731Z,29.50
2019-02-20T09:18:42.580Z,27.60
2019-02-20T09:20:43.413Z,28.10
2019-02-20T09:22:44.567Z,31.50
2019-02-20T09:24:45.409Z,30.60
2019-02-20T09:26:46.241Z,28.80
2019-02-20T09:28:47.589Z,34.03
2019-02-20T09:30:48.449Z,16.15
2019-02-20T09:32:49.290Z,25.80
2019-02-20T09:34:50.174Z,27.77
2019-02-20T09:36:51.385Z,27.97
2019-02-20T09:38:52.221Z,29.10
2019-02-20T09:40:53.065Z,29.07
2019-02-20T09:42:53.898Z,29.40
2019-02-20T09:44:54.765Z,34.67
2019-02-20T09:46:55.865Z,31.03
2019-02-20T09:48:56.711Z,29.40
2019-02-20T09:50:57.591Z,36.07
2019-02-20T09:52:58.612Z,31.90
2019-02-20T09:54:59.432Z,34.67
2019-02-20T09:57:00.386Z,31.80
2019-02-20T09:59:01.292Z,30.70
2019-02-20T10:01:03.016Z,29.73
2019-02-20T10:03:04.099Z,33.20
2019-02-20T10:05:04.977Z,29.63
2019-02-20T10:07:06.117Z,26.90
2019-02-20T10:09:06.965Z,26.47
2019-02-20T10:11:07.819Z,24.20
2019-02-20T10:13:10.947Z,26.10
2019-02-20T10:15:11.486Z,23.40
2019-02-20T10:17:12.345Z,24.77
2019-02-20T10:19:13.172Z,24.43
2019-02-20T10:21:14.030Z,22.93
2019-02-20T10:23:14.886Z,21.77
2019-02-20T10:25:15.729Z,22.43
2019-02-20T10:27:16.576Z,23.00
2019-02-20T10:29:17.411Z,23.90
2019-02-20T10:31:18.265Z,23.80
2019-02-20T10:33:19.126Z,23.57
2019-02-20T10:35:19.969Z,24.10
2019-02-20T10:37:20.821Z,24.10
2019-02-20T10:39:21.735Z,23.40
2019-02-20T10:41:22.589Z,22.33
2019-02-20T10:43:23.452Z,21.23
2019-02-20T10:45:24.317Z,23.17
2019-02-20T10:47:25.509Z,24.07
2019-02-20T10:49:26.679Z,25.17
2019-02-20T10:51:27.531Z,24.20
2019-02-20T10:53:28.383Z,27.27
2019-02-20T10:55:29.484Z,23.37
2019-02-20T10:57:30.352Z,23.17
2019-02-20T10:59:31.776Z,20.70
2019-02-20T11:01:32.909Z,18.83
2019-02-20T11:03:33.769Z,22.17
2019-02-20T11:05:34.629Z,18.17
2019-02-20T11:07:35.479Z,16.87
2019-02-20T11:09:36.311Z,16.00
2019-02-20T11:11:37.441Z,16.53
2019-02-20T11:13:38.634Z,14.13
2019-02-20T11:15:39.605Z,18.20
2019-02-20T11:17:40.557Z,11.63
2019-02-20T11:19:41.741Z,10.77
2019-02-20T11:21:42.585Z,11.20
2019-02-20T11:23:43.464Z,9.53
2019-02-20T11:25:44.674Z,10.67
2019-02-20T11:27:45.519Z,10.97
2019-02-20T11:29:46.354Z,10.90
2019-02-20T11:31:47.233Z,10.13
2019-02-20T11:33:48.074Z,9.60
2019-02-20T11:35:48.924Z,10.00
2019-02-20T11:37:50.057Z,9.23
2019-02-20T11:39:50.909Z,11.10
2019-02-20T11:41:51.745Z,7.80
2019-02-20T11:43:52.599Z,8.23
2019-02-20T11:45:53.696Z,7.43
2019-02-20T11:47:54.556Z,9.20
2019-02-20T11:49:55.497Z,9.17
2019-02-20T11:51:56.920Z,9.67
2019-02-20T11:53:57.792Z,7.00
2019-02-20T11:55:58.641Z,7.37
2019-02-20T11:58:00.983Z,9.53
2019-02-20T12:00:02.202Z,9.17
2019-02-20T12:02:03.044Z,11.83
2019-02-20T12:04:03.892Z,8.43
2019-02-20T12:06:04.731Z,8.57
2019-02-20T12:08:06.140Z,10.50
2019-02-20T12:10:07.084Z,9.93
2019-02-20T12:12:09.407Z,9.25
2019-02-20T12:14:10.489Z,9.50
2019-02-20T12:16:11.321Z,10.13
2019-02-20T12:18:17.430Z,8.23
2019-02-20T12:20:14.912Z,9.43
2019-02-20T12:22:15.777Z,8.97
2019-02-20T12:24:16.640Z,10.33
2019-02-20T12:26:17.477Z,8.90
2019-02-20T12:28:18.341Z,9.17
2019-02-20T12:30:19.198Z,11.33
2019-02-20T12:32:20.039Z,12.10
2019-02-20T12:34:20.902Z,13.73
2019-02-20T12:36:21.868Z,10.20
2019-02-20T12:38:22.752Z,13.77
2019-02-20T12:40:23.628Z,10.90
2019-02-20T12:42:24.452Z,11.30
2019-02-20T12:44:25.280Z,10.73
2019-02-20T12:46:26.124Z,9.07
2019-02-20T12:48:26.969Z,8.57
2019-02-20T12:50:27.811Z,10.30
2019-02-20T12:52:28.709Z,9.50
2019-02-20T12:54:29.548Z,9.27
2019-02-20T12:56:30.668Z,10.30
2019-02-20T12:58:31.661Z,9.37
2019-02-20T13:00:32.504Z,9.33
2019-02-20T13:02:33.345Z,8.33
2019-02-20T13:04:34.233Z,8.67
2019-02-20T13:06:36.161Z,8.70
2019-02-20T13:08:37.005Z,8.67
2019-02-20T13:10:37.950Z,7.37
2019-02-20T13:12:38.802Z,9.20
2019-02-20T13:14:39.649Z,9.90
2019-02-20T13:16:40.481Z,9.37
2019-02-20T13:18:41.310Z,9.17
2019-02-20T13:20:42.336Z,8.90
2019-02-20T13:22:43.246Z,9.10
2019-02-20T13:24:44.096Z,9.47
2019-02-20T13:26:52.914Z,9.83
2019-02-20T13:28:48.153Z,8.33
2019-02-20T13:30:49.005Z,7.93
2019-02-20T13:32:51.022Z,7.83
2019-02-20T13:34:52.007Z,9.90
2019-02-20T13:36:52.872Z,7.40
2019-02-20T13:38:53.800Z,8.50
2019-02-20T13:40:54.920Z,7.37
2019-02-20T13:42:56.063Z,9.33
2019-02-20T13:44:56.942Z,10.60
2019-02-20T13:46:57.786Z,8.87
2019-02-20T13:48:58.646Z,8.23
2019-02-20T13:50:59.787Z,9.43
2019-02-20T13:53:00.652Z,10.00
2019-02-20T13:55:01.929Z,10.97
2019-02-20T13:57:02.845Z,9.53
2019-02-20T13:59:03.680Z,10.10
2019-02-20T14:01:04.600Z,10.17
2019-02-20T14:03:05.694Z,8.40
2019-02-20T14:05:06.581Z,10.27
2019-02-20T14:07:07.631Z,9.23
2019-02-20T14:09:08.676Z,9.27
2019-02-20T14:11:09.592Z,8.70
2019-02-20T14:13:10.644Z,9.97
2019-02-20T14:15:11.496Z,9.53
2019-02-20T14:17:12.509Z,8.87
2019-02-20T14:19:13.536Z,8.07
2019-02-20T14:21:14.402Z,10.03
2019-02-20T14:23:15.265Z,9.70
2019-02-20T14:25:16.113Z,9.13
2019-02-20T14:27:17.344Z,10.23
2019-02-20T14:29:18.611Z,12.67
2019-02-20T14:31:19.479Z,10.37
2019-02-20T14:33:20.511Z,11.17
2019-02-20T14:35:21.362Z,10.77
2019-02-20T14:37:22.194Z,11.47
2019-02-20T14:39:23.208Z,10.17
2019-02-20T14:41:24.036Z,13.60
2019-02-20T14:43:24.912Z,12.47
2019-02-20T14:45:25.753Z,10.83
2019-02-20T14:47:26.585Z,11.10
2019-02-20T14:49:27.756Z,10.53
2019-02-20T14:51:28.902Z,11.03
2019-02-20T14:53:29.780Z,11.57
2019-02-20T14:55:30.972Z,10.20
2019-02-20T14:57:31.826Z,9.90
2019-02-20T14:59:32.666Z,10.23
2019-02-20T15:01:33.772Z,11.70
2019-02-20T15:03:34.639Z,10.30
2019-02-20T15:05:35.472Z,10.47
2019-02-20T15:07:36.328Z,10.87
2019-02-20T15:09:37.164Z,9.70
2019-02-20T15:11:38.030Z,12.07
2019-02-20T15:13:38.892Z,12.93
2019-02-20T15:15:39.720Z,13.50
2019-02-20T15:17:40.561Z,10.17
2019-02-20T15:19:41.433Z,12.80
2019-02-20T15:21:42.724Z,12.23
2019-02-20T15:23:43.837Z,11.20
2019-02-20T15:25:44.717Z,12.13
2019-02-20T15:27:45.548Z,13.57
2019-02-20T15:29:46.381Z,11.97
2019-02-20T15:31:47.521Z,10.80
2019-02-20T15:33:48.353Z,12.90
2019-02-20T15:35:49.222Z,12.00
2019-02-20T15:37:50.528Z,12.90
2019-02-20T15:39:51.373Z,13.87
2019-02-20T15:41:52.244Z,12.33
2019-02-20T15:43:53.086Z,13.73
2019-02-20T15:45:53.930Z,12.27
2019-02-20T15:47:54.783Z,12.17
2019-02-20T15:49:55.632Z,16.07
2019-02-20T15:51:56.498Z,14.43
2019-02-20T15:53:57.336Z,13.20
2019-02-20T15:55:58.189Z,16.50
2019-02-20T15:57:59.032Z,13.27
2019-02-20T15:59:59.888Z,14.97
2019-02-20T16:02:00.718Z,15.70
2019-02-20T16:04:01.561Z,14.03
2019-02-20T16:06:02.412Z,13.17
2019-02-20T16:08:03.443Z,15.83
2019-02-20T16:10:06.669Z,16.93
2019-02-20T16:12:07.597Z,15.10
2019-02-20T16:14:08.428Z,12.83
2019-02-20T16:16:09.649Z,15.90
2019-02-20T16:18:10.746Z,12.13
2019-02-20T16:20:11.881Z,15.00
2019-02-20T16:22:12.738Z,14.87
2019-02-20T16:24:13.584Z,17.03
2019-02-20T16:26:14.431Z,13.23
2019-02-20T16:28:15.260Z,13.20
2019-02-20T16:30:16.297Z,14.20
2019-02-20T16:32:17.128Z,14.17
2019-02-20T16:34:17.989Z,15.20
2019-02-20T16:36:18.901Z,15.50
2019-02-20T16:38:19.937Z,14.90
2019-02-20T16:40:20.795Z,16.57
2019-02-20T16:42:22.076Z,14.47
2019-02-20T16:44:22.938Z,19.90
2019-02-20T16:46:23.790Z,18.30
2019-02-20T16:48:24.645Z,16.97
2019-02-20T16:50:25.514Z,19.80
2019-02-20T16:52:26.344Z,19.47
2019-02-20T16:54:27.209Z,18.47
2019-02-20T16:56:28.272Z,17.90
2019-02-20T16:58:29.540Z,16.67
2019-02-20T17:00:30.406Z,16.47
2019-02-20T17:02:31.262Z,14.43
2019-02-20T17:04:32.485Z,15.73
2019-02-20T17:06:33.349Z,17.27
2019-02-20T17:08:35.564Z,13.93
2019-02-20T17:10:36.545Z,13.97
2019-02-20T17:12:37.406Z,18.30
2019-02-20T17:14:38.244Z,13.70
2019-02-20T17:16:39.099Z,16.73
2019-02-20T17:18:39.980Z,18.33
2019-02-20T17:20:40.847Z,13.07
2019-02-20T17:22:41.677Z,19.47
2019-02-20T17:24:42.613Z,15.23
2019-02-20T17:26:43.462Z,15.33
2019-02-20T17:28:44.604Z,16.93
2019-02-20T17:30:45.457Z,16.80
2019-02-20T17:32:46.299Z,22.40
2019-02-20T17:34:47.133Z,18.10
2019-02-20T17:36:47.996Z,23.73
2019-02-20T17:38:48.833Z,19.40
2019-02-20T17:40:49.686Z,20.73
2019-02-20T17:42:50.589Z,29.07
2019-02-20T17:44:51.443Z,24.30
2019-02-20T17:46:52.327Z,24.00
2019-02-20T17:48:53.206Z,25.90
2019-02-20T17:50:54.064Z,27.97
2019-02-20T17:52:55.095Z,23.47
2019-02-20T17:54:56.440Z,22.73
2019-02-20T17:56:57.483Z,19.57
2019-02-20T17:58:58.365Z,31.50
2019-02-20T18:01:00.549Z,26.83
2019-02-20T18:03:01.430Z,23.97
2019-02-20T18:05:02.300Z,27.50
2019-02-20T18:07:03.176Z,24.73
2019-02-20T18:09:04.346Z,24.93
2019-02-20T18:11:05.249Z,23.70
2019-02-20T18:13:06.123Z,21.87
2019-02-20T18:15:06.947Z,22.50
2019-02-20T18:17:07.796Z,24.47
2019-02-20T18:19:08.635Z,25.43
2019-02-20T18:21:09.484Z,20.17
2019-02-20T18:23:10.356Z,24.10
2019-02-20T18:25:11.233Z,21.63
2019-02-20T18:27:12.108Z,20.63
2019-02-20T18:29:12.940Z,19.27
2019-02-20T18:31:13.780Z,20.63
2019-02-20T18:33:14.635Z,22.43
2019-02-20T18:35:15.523Z,21.30
2019-02-20T18:37:16.631Z,21.87
2019-02-20T18:39:17.511Z,21.13
2019-02-20T18:41:18.372Z,20.73
2019-02-20T18:43:19.294Z,20.50
2019-02-20T18:45:20.190Z,21.57
2019-02-20T18:47:21.145Z,16.97
2019-02-20T18:49:22.350Z,19.30
2019-02-20T18:51:23.205Z,16.57
2019-02-20T18:53:24.039Z,19.13
2019-02-20T18:55:24.877Z,20.70
2019-02-20T18:57:25.807Z,19.20
2019-02-20T18:59:26.733Z,18.63
2019-02-20T19:01:27.585Z,18.80
2019-02-20T19:03:28.424Z,15.70
2019-02-20T19:05:29.277Z,18.90
2019-02-20T19:07:30.115Z,17.67
2019-02-20T19:09:30.966Z,17.53
2019-02-20T19:11:31.832Z,22.13
2019-02-20T19:13:32.791Z,20.43
2019-02-20T19:15:33.704Z,23.03
2019-02-20T19:17:34.536Z,23.87
2019-02-20T19:19:35.384Z,21.43
2019-02-20T19:21:36.759Z,26.17
2019-02-20T19:23:37.777Z,23.57
2019-02-20T19:25:38.712Z,20.27
2019-02-20T19:27:39.911Z,23.57
2019-02-20T19:29:40.780Z,23.33
2019-02-20T19:31:41.643Z,19.93
2019-02-20T19:33:42.843Z,22.80
2019-02-20T19:35:43.829Z,23.23
2019-02-20T19:37:44.665Z,24.27
2019-02-20T19:39:45.610Z,24.20
2019-02-20T19:41:46.447Z,22.20
2019-02-20T19:43:47.319Z,24.87
2019-02-20T19:45:48.229Z,25.93
2019-02-20T19:47:50.498Z,27.93
2019-02-20T19:49:51.489Z,24.10
2019-02-20T19:51:52.332Z,29.93
2019-02-20T19:53:53.234Z,25.80
2019-02-20T19:55:54.078Z,25.07
2019-02-20T19:57:54.937Z,22.57
2019-02-20T19:59:55.949Z,22.53
2019-02-20T20:01:56.953Z,29.57
2019-02-20T20:03:57.797Z,25.80
2019-02-20T20:05:58.663Z,26.60
2019-02-20T20:07:59.581Z,23.93
2019-02-20T20:10:00.462Z,26.07
2019-02-20T20:12:01.342Z,27.70
2019-02-20T20:14:02.276Z,27.07
2019-02-20T20:16:03.463Z,30.17
2019-02-20T20:18:04.463Z,28.77
2019-02-20T20:20:05.334Z,25.77
2019-02-20T20:22:06.245Z,27.20
2019-02-20T20:24:07.084Z,28.00
2019-02-20T20:26:07.954Z,28.40
2019-02-20T20:28:08.817Z,32.80
2019-02-20T20:30:09.955Z,30.57
2019-02-20T20:32:13.369Z,27.13
2019-02-20T20:34:14.211Z,32.70
2019-02-20T20:36:15.132Z,31.17
2019-02-20T20:38:16.256Z,29.30
2019-02-20T20:40:17.089Z,27.93
2019-02-20T20:42:17.927Z,30.50
2019-02-20T20:44:27.784Z,28.87
2019-02-20T20:46:21.561Z,28.03
2019-02-20T20:48:22.400Z,23.93
2019-02-20T20:50:23.259Z,25.17
2019-02-20T20:52:24.096Z,26.47
2019-02-20T20:54:24.950Z,27.67
2019-02-20T20:56:25.795Z,26.10
2019-02-20T20:58:26.632Z,26.63
2019-02-20T21:00:27.563Z,25.77
2019-02-20T21:02:28.431Z,24.80
2019-02-20T21:04:29.788Z,23.60
2019-02-20T21:06:30.825Z,24.43
2019-02-20T21:08:31.689Z,27.33
2019-02-20T21:10:32.529Z,26.77
2019-02-20T21:12:33.402Z,30.00
2019-02-20T21:14:34.256Z,27.73
2019-02-20T21:16:35.444Z,24.97
2019-02-20T21:18:36.318Z,22.83
2019-02-20T21:20:37.145Z,27.43
2019-02-20T21:22:38.029Z,24.73
2019-02-20T21:24:39.184Z,26.33
2019-02-20T21:26:40.052Z,25.17
2019-02-20T21:28:40.913Z,28.33
2019-02-20T21:30:41.753Z,26.03
2019-02-20T21:32:42.602Z,24.93
2019-02-20T21:34:43.505Z,24.57
2019-02-20T21:36:45.198Z,25.70
2019-02-20T21:38:46.156Z,27.97
2019-02-20T21:40:47.060Z,27.90
2019-02-20T21:42:47.978Z,25.13
2019-02-20T21:44:48.818Z,29.60
2019-02-20T21:46:49.667Z,30.77
2019-02-20T21:48:50.833Z,31.70
2019-02-20T21:50:51.717Z,32.60
2019-02-20T21:52:52.575Z,34.00
2019-02-20T21:54:53.474Z,34.10
2019-02-20T21:56:54.308Z,33.70
2019-02-20T21:58:55.162Z,32.73
2019-02-20T22:00:56.009Z,27.10
2019-02-20T22:02:56.867Z,29.63
2019-02-20T22:04:57.708Z,25.33
2019-02-20T22:06:58.847Z,24.47
2019-02-20T22:08:59.700Z,27.87
2019-02-20T22:11:00.528Z,24.10
2019-02-20T22:13:01.372Z,25.10
2019-02-20T22:15:02.229Z,23.53
2019-02-20T22:17:03.068Z,24.40
2019-02-20T22:19:04.264Z,24.10
2019-02-20T22:21:05.196Z,24.40
2019-02-20T22:23:06.060Z,25.30
2019-02-20T22:25:06.885Z,30.83
2019-02-20T22:27:07.883Z,34.83
2019-02-20T22:29:08.723Z,34.07
2019-02-20T22:31:10.042Z,28.70
2019-02-20T22:33:10.921Z,29.00
2019-02-20T22:35:11.756Z,32.40
2019-02-20T22:37:12.616Z,31.07
2019-02-20T22:39:13.449Z,38.63
2019-02-20T22:41:14.276Z,37.27
2019-02-20T22:43:15.134Z,35.70
2019-02-20T22:45:15.970Z,33.47
2019-02-20T22:47:17.876Z,35.80
2019-02-20T22:49:18.804Z,42.00
2019-02-20T22:51:19.760Z,34.77
2019-02-20T22:53:20.680Z,40.03
2019-02-20T22:55:21.646Z,34.83
2019-02-20T22:57:22.476Z,33.27
2019-02-20T22:59:23.380Z,34.20
2019-02-20T23:01:26.117Z,28.07
2019-02-20T23:03:27.299Z,31.37
2019-02-20T23:05:28.256Z,25.83
2019-02-20T23:07:29.357Z,24.47
2019-02-20T23:09:30.271Z,28.23
2019-02-20T23:11:31.144Z,28.40
2019-02-20T23:13:31.983Z,29.40
2019-02-20T23:15:33.098Z,27.30
2019-02-20T23:17:33.957Z,32.10
2019-02-20T23:19:34.928Z,28.40
2019-02-20T23:21:35.771Z,30.27
2019-02-20T23:23:36.616Z,33.43
2019-02-20T23:25:37.740Z,36.27
2019-02-20T23:27:38.582Z,33.87
2019-02-20T23:29:39.427Z,33.17
2019-02-20T23:31:40.270Z,37.40
2019-02-20T23:33:41.106Z,31.93
2019-02-20T23:35:41.951Z,32.53
2019-02-20T23:37:42.793Z,30.73
2019-02-20T23:39:43.636Z,28.77
2019-02-20T23:41:44.473Z,32.13
2019-02-20T23:43:45.304Z,32.70
2019-02-20T23:45:46.143Z,31.93
2019-02-20T23:47:47.085Z,32.20
2019-02-20T23:49:47.933Z,31.63
2019-02-20T23:51:48.789Z,35.83
2019-02-20T23:53:49.689Z,36.50
2019-02-20T23:55:50.536Z,36.53
2019-02-20T23:57:51.377Z,35.77
2019-02-20T23:59:52.216Z,33.03
